Pagina principale
METAR-TAF:

METAR-TAF

Aeroporti :

Friedrichshafen, Germania

Aeroporto di Friedrichshafen

latitudine: 47-40N, longitudine: 009-31E, altezza: 416 m

Osservazione

Il bollettino è stato emesso 19 minuti fa, alle 07:50 UTC
Vento 2 kt da direzioni variabili
Temperature 20°C
Umidità 56%
Pressione 1021 hPa
Visibilità 10 km o più
nessuna nube inferiore a 1500 m e nessun cumulonembo

METAR: EDNY 270750Z VRB02KT CAVOK 20/11 Q1021

Ora: 10:09 (08:09 UTC)

Previsione

Il bollettino è stato emesso 3 ore e 9 minuti fa, alle 05:00 UTC
Previsione valida dal 27 alle 06 UTC al 28 alle 06 UTC
Vento 4 kt da nord-est
Visibilità 10 km o più
nessuna nube inferiore a 1500 m e nessun cumulonembo
Evoluzione graduale
dal 27 alle 09 UTC al 27 alle 11 UTC
Vento 5 kt da ovest/sud-ovest
Evoluzione graduale
dal 27 alle 16 UTC al 27 alle 18 UTC
Vento 3 kt da nord-est

TAF: EDNY 270500Z 2706/2806 04004KT CAVOK BECMG 2709/2711 24005KT BECMG 2716/2718 04003KT

Osservazioni e previsioni meteorologiche di più di 4000 aeroporti (messaggi METAR e TAF).

Le stazioni disponibili sono rappresentate dai dischi gialli e rossi sulla carta.

Puntare il mouse per vedere il nome della stazione.

Clicca sopra per visualizzare le osservazioni e previsioni meteorologiche.

Per cambiare la mappa : fare clic sui pulsanti verdi con una croce nera per ingrandire, il pulsante verde con un trattino per diminuire, o sulla freccia verde per le mappe adiacenti.


METAR-TAF: